Time;durP1;ratioP1;P1;durP2;ratioP2;P2;SDS_P1;SDS_P2;PMS_P1;PMS_P2;Temp;Humidity;BMP_temperature;BMP_pressure;BME280_temperature;BME280_humidity;BME280_pressure;Samples;Min_cycle;Max_cycle;Signal;HPM_P1;HPM_P2
2022/05/26 00:01:28;;;;;;;0.90;0.90;;;15.80;99.30;;;;;;5065600;28;20239;-77
2022/05/26 00:03:56;;;;;;;1.30;1.20;;;15.90;99.50;;;;;;5057780;28;20211;-76
2022/05/26 00:06:24;;;;;;;2.87;1.10;;;16.00;99.10;;;;;;5049063;28;20273;-76
2022/05/26 00:08:52;;;;;;;1.47;0.90;;;15.90;99.40;;;;;;5065897;28;20266;-76
2022/05/26 00:11:21;;;;;;;1.07;1.00;;;15.90;99.70;;;;;;5068715;28;20294;-76
2022/05/26 00:13:48;;;;;;;0.90;0.90;;;15.90;99.50;;;;;;5069476;28;20261;-77
2022/05/26 00:16:15;;;;;;;1.37;1.10;;;16.00;99.10;;;;;;5069718;28;20207;-76
2022/05/26 00:18:43;;;;;;;1.00;0.90;;;15.90;99.20;;;;;;5069648;28;20665;-77
2022/05/26 00:21:11;;;;;;;1.00;1.00;;;15.80;99.30;;;;;;5058394;28;20204;-77
2022/05/26 00:23:38;;;;;;;0.90;0.90;;;15.80;99.30;;;;;;5048897;28;20215;-77
2022/05/26 00:26:05;;;;;;;1.00;0.90;;;15.90;99.30;;;;;;5059401;28;20204;-77
2022/05/26 00:28:32;;;;;;;0.60;0.60;;;15.80;99.20;;;;;;5068818;28;20228;-77
2022/05/26 00:30:59;;;;;;;1.23;0.87;;;15.90;99.30;;;;;;5068817;28;20251;-76
2022/05/26 00:33:26;;;;;;;0.70;0.70;;;15.90;99.40;;;;;;5062058;28;20609;-77
2022/05/26 00:35:52;;;;;;;0.93;0.90;;;15.80;99.30;;;;;;5052295;28;20273;-77
2022/05/26 00:38:20;;;;;;;0.83;0.80;;;15.80;99.50;;;;;;5068319;28;20762;-76
2022/05/26 00:40:47;;;;;;;1.17;0.73;;;15.80;99.60;;;;;;5065519;28;20239;-77
2022/05/26 00:43:15;;;;;;;1.47;0.70;;;15.80;99.30;;;;;;5061203;28;20249;-77
2022/05/26 00:45:49;;;;;;;1.10;0.77;;;15.80;99.10;;;;;;5048618;28;20266;-77
2022/05/26 00:48:20;;;;;;;4.53;0.90;;;15.80;99.00;;;;;;5062542;28;20665;-77
2022/05/26 00:50:51;;;;;;;1.97;1.00;;;15.90;99.00;;;;;;5068641;28;20253;-80
2022/05/26 00:53:25;;;;;;;2.97;1.20;;;15.80;98.60;;;;;;5064969;28;20232;-77
2022/05/26 00:55:57;;;;;;;0.97;0.70;;;15.80;98.60;;;;;;5065488;28;20256;-77
2022/05/26 00:58:29;;;;;;;0.90;0.90;;;15.80;98.70;;;;;;5068858;28;20204;-77
2022/05/26 01:00:58;;;;;;;0.77;0.77;;;15.70;98.60;;;;;;5067963;28;20192;-77
2022/05/26 01:03:33;;;;;;;1.17;0.90;;;15.70;98.50;;;;;;5068036;28;20215;-77
2022/05/26 01:06:04;;;;;;;3.50;1.03;;;15.70;98.60;;;;;;5068414;28;20450;-77
2022/05/26 01:08:37;;;;;;;0.70;0.70;;;15.70;98.70;;;;;;5067587;28;20697;-77
2022/05/26 01:11:08;;;;;;;0.70;0.70;;;15.70;98.70;;;;;;5067849;28;20566;-77
2022/05/26 01:13:41;;;;;;;0.60;0.50;;;15.80;98.50;;;;;;5051829;28;20215;-78
2022/05/26 01:16:20;;;;;;;1.33;0.70;;;15.70;98.40;;;;;;5048273;28;20263;-77
2022/05/26 01:18:56;;;;;;;0.80;0.80;;;15.70;98.40;;;;;;5066278;28;20265;-75
2022/05/26 01:21:28;;;;;;;0.60;0.60;;;15.80;98.60;;;;;;5060213;28;20194;-75
2022/05/26 01:24:11;;;;;;;0.50;0.50;;;15.80;98.60;;;;;;5066084;28;20208;-76
2022/05/26 01:27:07;;;;;;;2.13;0.90;;;15.90;98.60;;;;;;5047583;28;20242;-77
2022/05/26 01:30:07;;;;;;;0.70;0.70;;;15.90;98.40;;;;;;5066968;28;20225;-77
2022/05/26 01:32:48;;;;;;;0.83;0.73;;;15.90;98.50;;;;;;5067372;28;20206;-77
2022/05/26 01:35:21;;;;;;;0.70;0.70;;;15.70;98.60;;;;;;5069132;28;20202;-77
2022/05/26 01:37:57;;;;;;;0.57;0.57;;;15.80;98.60;;;;;;5069237;28;20199;-78
2022/05/26 01:40:32;;;;;;;1.33;0.60;;;15.80;98.70;;;;;;5069150;28;20243;-76
2022/05/26 01:43:06;;;;;;;0.60;0.60;;;15.80;98.60;;;;;;5049904;28;20822;-77
2022/05/26 01:45:40;;;;;;;0.57;0.57;;;15.80;98.60;;;;;;5049263;28;20192;-77
2022/05/26 01:48:14;;;;;;;0.73;0.60;;;15.80;98.60;;;;;;5061964;28;20265;-78
2022/05/26 01:50:45;;;;;;;2.20;0.70;;;15.70;98.50;;;;;;5069339;28;20207;-77
2022/05/26 01:53:24;;;;;;;0.77;0.77;;;15.70;98.70;;;;;;5068909;28;20231;-77
2022/05/26 01:55:56;;;;;;;2.13;0.70;;;15.70;98.70;;;;;;5068147;28;20202;-77
2022/05/26 01:58:31;;;;;;;1.80;0.70;;;15.80;98.60;;;;;;5069304;28;20241;-77
2022/05/26 02:01:03;;;;;;;1.33;0.90;;;15.80;98.50;;;;;;5069289;28;20192;-80
2022/05/26 02:03:33;;;;;;;0.80;0.80;;;15.80;98.70;;;;;;5068912;28;20281;-76
2022/05/26 02:06:13;;;;;;;0.63;0.63;;;15.70;98.80;;;;;;5049198;28;20286;-76
2022/05/26 02:08:45;;;;;;;0.63;0.63;;;15.80;98.80;;;;;;5048675;28;20738;-77
2022/05/26 02:11:14;;;;;;;1.03;0.80;;;15.70;98.80;;;;;;5049145;28;20192;-77
2022/05/26 02:13:45;;;;;;;2.23;0.70;;;15.70;98.70;;;;;;5049027;28;20215;-77
2022/05/26 02:16:17;;;;;;;1.17;0.80;;;15.70;98.80;;;;;;5048753;28;20184;-77
2022/05/26 02:18:53;;;;;;;0.80;0.80;;;15.80;98.90;;;;;;5066633;28;20509;-77
2022/05/26 02:21:25;;;;;;;1.83;0.80;;;15.80;98.80;;;;;;5068413;28;20192;-77
2022/05/26 02:24:00;;;;;;;0.73;0.60;;;15.80;98.80;;;;;;5066814;28;20195;-76
2022/05/26 02:26:26;;;;;;;1.17;1.00;;;15.90;98.70;;;;;;5068013;28;20195;-77
2022/05/26 02:31:39;;;;;;;0.60;0.60;;;15.90;98.60;;;;;;5062015;28;20211;-77
2022/05/26 02:34:08;;;;;;;2.10;1.10;;;15.90;98.80;;;;;;5048184;28;20207;-77
2022/05/26 02:36:38;;;;;;;0.87;0.87;;;15.90;98.70;;;;;;5066217;28;20204;-77
2022/05/26 02:39:05;;;;;;;2.63;1.00;;;15.80;98.80;;;;;;5067785;28;20204;-76
2022/05/26 02:41:33;;;;;;;3.77;0.70;;;15.80;98.90;;;;;;5067836;28;20231;-77
2022/05/26 02:44:00;;;;;;;1.93;0.87;;;15.90;99.00;;;;;;5067976;28;20257;-77
2022/05/26 02:46:38;;;;;;;1.80;0.70;;;15.90;99.00;;;;;;5067622;28;20203;-77
2022/05/26 02:49:19;;;;;;;1.60;0.97;;;16.00;98.90;;;;;;5067879;28;20228;-77
2022/05/26 02:51:53;;;;;;;0.67;0.60;;;15.90;99.00;;;;;;5063608;28;20258;-77
2022/05/26 02:54:42;;;;;;;1.27;0.97;;;16.00;99.10;;;;;;5047875;28;20193;-77
2022/05/26 02:57:16;;;;;;;0.70;0.70;;;15.90;99.00;;;;;;5048023;28;20200;-76
2022/05/26 02:59:50;;;;;;;2.63;0.97;;;15.90;99.00;;;;;;5047540;28;20200;-86
2022/05/26 03:02:23;;;;;;;0.90;0.70;;;15.90;99.10;;;;;;5049123;28;20197;-86
2022/05/26 03:04:55;;;;;;;2.87;1.00;;;15.80;99.20;;;;;;5048919;28;20242;-86
2022/05/26 03:07:27;;;;;;;1.43;0.63;;;15.80;99.20;;;;;;5047628;28;20899;-78
2022/05/26 03:09:55;;;;;;;2.07;0.90;;;15.90;99.20;;;;;;5047274;28;20231;-78
2022/05/26 03:12:24;;;;;;;2.13;1.10;;;15.90;99.30;;;;;;5047994;28;20234;-78
2022/05/26 03:14:51;;;;;;;0.70;0.70;;;15.90;99.20;;;;;;5047739;28;20758;-78
2022/05/26 03:17:18;;;;;;;0.80;0.80;;;16.00;99.20;;;;;;5053564;28;20261;-78
2022/05/26 03:19:45;;;;;;;1.07;0.90;;;15.90;99.20;;;;;;5066847;28;20721;-78
2022/05/26 03:22:13;;;;;;;1.30;0.70;;;16.00;99.20;;;;;;5067750;28;20208;-76
2022/05/26 03:24:40;;;;;;;1.67;1.00;;;16.00;99.30;;;;;;5067475;28;20195;-76
2022/05/26 03:27:07;;;;;;;2.37;1.10;;;15.90;99.30;;;;;;5067497;28;20211;-76
2022/05/26 03:29:34;;;;;;;1.80;0.90;;;16.00;99.40;;;;;;5047568;28;20275;-76
2022/05/26 03:32:01;;;;;;;0.87;0.87;;;15.90;99.40;;;;;;5046760;28;20716;-78
2022/05/26 03:42:44;;;;;;;2.80;1.20;;;15.80;99.70;;;;;;5055857;28;20207;-78
2022/05/26 03:45:13;;;;;;;1.77;0.90;;;15.80;99.80;;;;;;5070579;28;20207;-75
2022/05/26 03:47:40;;;;;;;0.80;0.80;;;15.80;99.90;;;;;;5068244;28;20661;-76
2022/05/26 03:50:07;;;;;;;4.20;1.17;;;15.90;99.90;;;;;;5051216;28;20671;-76
2022/05/26 03:52:35;;;;;;;2.30;1.07;;;15.90;99.90;;;;;;5051523;28;20236;-76
2022/05/26 03:55:02;;;;;;;0.70;0.70;;;15.90;99.90;;;;;;5051259;28;20354;-76
2022/05/26 03:57:31;;;;;;;0.77;0.77;;;16.00;99.90;;;;;;5051768;28;20614;-76
2022/05/26 03:59:58;;;;;;;1.03;0.80;;;15.90;99.90;;;;;;5071341;28;20214;-80
2022/05/26 04:02:25;;;;;;;1.53;1.00;;;15.90;99.90;;;;;;5071205;28;20725;-80
2022/05/26 04:04:52;;;;;;;2.83;1.17;;;16.00;99.90;;;;;;5071666;28;20237;-83
2022/05/26 04:07:18;;;;;;;0.83;0.83;;;16.00;99.90;;;;;;5071966;28;20215;-80
2022/05/26 04:09:46;;;;;;;2.17;1.17;;;16.00;99.90;;;;;;5071089;28;20228;-80
2022/05/26 04:12:13;;;;;;;0.77;0.77;;;15.90;99.90;;;;;;5071376;28;20204;-80
2022/05/26 04:14:40;;;;;;;1.70;0.87;;;15.90;99.90;;;;;;5071590;28;20249;-79
2022/05/26 04:17:06;;;;;;;1.63;1.10;;;15.80;99.90;;;;;;5060662;28;20211;-79
2022/05/26 04:19:35;;;;;;;5.27;1.20;;;15.80;99.90;;;;;;5071331;28;20207;-79
2022/05/26 04:22:17;;;;;;;0.80;0.80;;;15.80;99.90;;;;;;5070985;28;20545;-79
2022/05/26 04:24:47;;;;;;;2.40;1.03;;;15.90;99.90;;;;;;5062039;28;20208;-80
2022/05/26 04:27:14;;;;;;;1.37;1.20;;;15.80;99.90;;;;;;5050839;28;20208;-80
2022/05/26 04:29:41;;;;;;;1.50;1.10;;;15.90;99.90;;;;;;5050814;28;20236;-79
2022/05/26 04:32:11;;;;;;;1.00;1.00;;;15.90;99.90;;;;;;5050954;28;20223;-79
2022/05/26 04:34:39;;;;;;;1.23;0.90;;;15.90;99.90;;;;;;5050721;28;20655;-79
2022/05/26 04:37:06;;;;;;;1.90;1.03;;;15.90;99.90;;;;;;5050869;28;20208;-79
2022/05/26 04:39:33;;;;;;;1.50;1.40;;;15.90;99.90;;;;;;5056176;28;20674;-80
2022/05/26 04:42:04;;;;;;;2.83;1.03;;;15.90;99.90;;;;;;5070206;28;20236;-77
2022/05/26 04:44:33;;;;;;;1.77;1.00;;;15.80;99.90;;;;;;5069792;28;20199;-78
2022/05/26 04:47:00;;;;;;;1.10;1.10;;;15.90;99.90;;;;;;5057818;28;20254;-77
2022/05/26 04:49:27;;;;;;;1.30;1.20;;;15.90;99.90;;;;;;5050803;28;20286;-80
2022/05/26 04:51:54;;;;;;;1.77;1.00;;;15.90;99.90;;;;;;5060749;28;20215;-79
2022/05/26 04:54:20;;;;;;;1.20;1.10;;;16.00;99.90;;;;;;5069712;28;20793;-79
2022/05/26 04:56:47;;;;;;;2.07;1.30;;;16.00;99.90;;;;;;5069088;28;20207;-80
2022/05/26 04:59:15;;;;;;;1.80;1.00;;;16.00;99.90;;;;;;5052045;28;20266;-77
2022/05/26 05:01:42;;;;;;;1.43;1.33;;;16.00;99.90;;;;;;5050156;28;20266;-77
2022/05/26 05:04:12;;;;;;;1.67;1.10;;;16.00;99.90;;;;;;5050033;28;20250;-77
2022/05/26 05:06:38;;;;;;;2.93;1.57;;;16.00;99.90;;;;;;5050224;28;20204;-77
2022/05/26 05:09:05;;;;;;;1.33;1.20;;;16.00;99.90;;;;;;5050490;28;20642;-79
2022/05/26 05:11:32;;;;;;;1.00;1.00;;;15.90;99.90;;;;;;5050412;28;20220;-75
2022/05/26 05:14:02;;;;;;;1.87;1.30;;;15.90;99.90;;;;;;5049651;28;20207;-76
2022/05/26 05:16:33;;;;;;;2.37;1.60;;;16.00;99.90;;;;;;5049702;28;20196;-76
2022/05/26 05:19:00;;;;;;;1.27;1.13;;;16.00;99.90;;;;;;5067024;28;20251;-80
2022/05/26 05:21:31;;;;;;;2.60;1.37;;;16.10;99.90;;;;;;5064134;28;20223;-80
2022/05/26 05:24:02;;;;;;;2.23;1.20;;;16.20;99.90;;;;;;5069452;28;20195;-80
2022/05/26 05:26:34;;;;;;;1.40;1.30;;;16.20;99.90;;;;;;5070084;28;20253;-81
2022/05/26 05:29:05;;;;;;;1.57;1.20;;;16.20;99.90;;;;;;5069581;28;20223;-80
2022/05/26 05:31:39;;;;;;;2.30;1.50;;;16.20;99.90;;;;;;5069832;28;20192;-77
2022/05/26 05:34:10;;;;;;;2.00;1.50;;;16.20;99.90;;;;;;5069683;28;20677;-77
2022/05/26 05:36:39;;;;;;;1.70;1.60;;;16.20;99.90;;;;;;5062340;28;20204;-77
2022/05/26 05:39:06;;;;;;;2.63;1.90;;;16.20;99.90;;;;;;5069213;28;20277;-78
2022/05/26 05:41:34;;;;;;;1.50;1.40;;;16.20;99.90;;;;;;5069279;28;20266;-77
2022/05/26 05:44:02;;;;;;;1.90;1.80;;;16.30;99.90;;;;;;5069050;28;20199;-77
2022/05/26 05:46:34;;;;;;;2.73;1.90;;;16.20;99.90;;;;;;5070043;28;20203;-83
2022/05/26 05:49:04;;;;;;;1.67;1.57;;;16.40;99.90;;;;;;5069796;28;20215;-83
2022/05/26 05:51:31;;;;;;;2.20;1.80;;;16.40;99.90;;;;;;5067913;28;20224;-83
2022/05/26 05:53:57;;;;;;;2.10;1.50;;;16.40;99.90;;;;;;5068888;28;20211;-83
2022/05/26 05:56:24;;;;;;;1.80;1.70;;;16.40;99.90;;;;;;5068314;28;20203;-82
2022/05/26 05:58:51;;;;;;;3.63;1.67;;;16.40;99.90;;;;;;5069572;28;20207;-77
2022/05/26 06:01:18;;;;;;;1.80;1.70;;;16.30;99.90;;;;;;5069177;28;20333;-77
2022/05/26 06:03:46;;;;;;;2.30;2.00;;;16.40;99.90;;;;;;5049416;28;20203;-77
2022/05/26 06:06:14;;;;;;;2.23;1.90;;;16.40;99.90;;;;;;5048351;28;20580;-78
2022/05/26 06:08:41;;;;;;;1.83;1.73;;;16.40;99.90;;;;;;5048512;28;20208;-77
2022/05/26 06:11:08;;;;;;;1.97;1.87;;;16.40;99.90;;;;;;5064920;28;20228;-78
2022/05/26 06:13:35;;;;;;;1.97;1.80;;;16.40;99.90;;;;;;5063220;28;20270;-78
2022/05/26 06:16:04;;;;;;;5.30;2.10;;;16.40;99.90;;;;;;5048906;28;20219;-76
2022/05/26 06:18:32;;;;;;;3.23;2.10;;;16.50;99.90;;;;;;5065757;28;20298;-78
2022/05/26 06:21:07;;;;;;;2.33;2.20;;;16.60;99.90;;;;;;5068521;28;20203;-77
2022/05/26 06:23:35;;;;;;;2.40;2.23;;;16.60;99.90;;;;;;5068342;28;20605;-77
2022/05/26 06:26:04;;;;;;;1.93;1.83;;;16.60;99.90;;;;;;5064698;28;20742;-77
2022/05/26 06:31:16;;;;;;;2.50;2.30;;;16.70;99.90;;;;;;5055124;28;20230;-78
2022/05/26 06:39:24;;;;;;;5.50;3.63;;;16.70;99.90;;;;;;5047588;28;20208;-79
2022/05/26 06:42:06;;;;;;;3.60;2.77;;;16.70;99.90;;;;;;5048145;28;20240;-79
2022/05/26 06:44:37;;;;;;;2.23;1.73;;;16.80;99.90;;;;;;5048149;28;20196;-79
2022/05/26 06:47:06;;;;;;;1.80;1.70;;;16.80;99.90;;;;;;5049284;28;20235;-78
2022/05/26 06:49:33;;;;;;;5.00;2.33;;;16.80;99.90;;;;;;5047915;28;20228;-79
2022/05/26 06:52:00;;;;;;;3.33;2.73;;;16.70;99.90;;;;;;5066345;28;20223;-76
2022/05/26 06:54:31;;;;;;;2.90;2.20;;;16.60;99.90;;;;;;5067769;28;20238;-77
2022/05/26 06:56:57;;;;;;;4.53;2.20;;;16.60;99.90;;;;;;5068239;28;20199;-77
2022/05/26 06:59:24;;;;;;;2.10;2.00;;;16.50;99.90;;;;;;5068086;28;20233;-77
2022/05/26 07:01:51;;;;;;;1.97;1.87;;;16.50;99.90;;;;;;5065211;28;20722;-77
2022/05/26 07:04:18;;;;;;;2.10;1.90;;;16.40;99.90;;;;;;5048184;28;20207;-80
2022/05/26 07:06:48;;;;;;;2.93;2.13;;;16.40;99.90;;;;;;5048593;28;20253;-81
2022/05/26 07:09:15;;;;;;;2.30;2.10;;;16.30;99.90;;;;;;5049054;28;20247;-80
2022/05/26 07:11:43;;;;;;;2.77;2.50;;;16.10;99.90;;;;;;5052087;28;20250;-80
2022/05/26 07:14:10;;;;;;;4.10;3.80;;;16.00;99.90;;;;;;5050822;28;20204;-82
2022/05/26 07:16:37;;;;;;;3.40;3.10;;;15.90;99.90;;;;;;5048702;28;20714;-79
2022/05/26 07:19:03;;;;;;;3.80;2.70;;;15.80;99.90;;;;;;5067001;28;20207;-76
2022/05/26 07:21:30;;;;;;;2.77;2.57;;;15.60;99.90;;;;;;5067624;28;20207;-76
2022/05/26 07:23:57;;;;;;;3.30;3.00;;;15.60;99.90;;;;;;5067167;28;20606;-76
2022/05/26 07:26:25;;;;;;;4.30;3.43;;;15.30;99.90;;;;;;5060723;28;20192;-75
2022/05/26 07:28:53;;;;;;;3.83;3.50;;;15.20;99.90;;;;;;5065209;28;20208;-76
2022/05/26 07:31:20;;;;;;;4.47;3.53;;;15.10;99.90;;;;;;5067706;28;20231;-75
2022/05/26 07:33:47;;;;;;;3.80;3.60;;;15.10;99.90;;;;;;5067072;28;20737;-77
2022/05/26 07:41:39;;;;;;;4.60;4.20;;;15.00;99.90;;;;;;5046906;28;20301;-75
2022/05/26 07:44:07;;;;;;;4.70;4.30;;;15.00;99.90;;;;;;5047314;28;20204;-75
2022/05/26 07:46:34;;;;;;;6.00;4.47;;;15.10;99.90;;;;;;5047214;28;20736;-77
2022/05/26 07:49:01;;;;;;;4.33;4.00;;;15.20;99.90;;;;;;5047389;28;20204;-76
2022/05/26 07:51:27;;;;;;;4.77;4.30;;;15.20;99.90;;;;;;5063635;28;20338;-77
2022/05/26 07:53:54;;;;;;;5.20;4.73;;;15.30;99.90;;;;;;5047029;28;20258;-78
2022/05/26 07:56:21;;;;;;;4.13;3.90;;;15.30;99.90;;;;;;5047382;28;20253;-76
2022/05/26 07:58:48;;;;;;;5.33;4.60;;;15.30;99.90;;;;;;5047041;28;20204;-76
2022/05/26 08:01:16;;;;;;;3.67;3.47;;;15.40;99.90;;;;;;5065060;28;20299;-76
2022/05/26 08:03:43;;;;;;;3.97;3.63;;;15.40;99.90;;;;;;5067168;28;20203;-75
2022/05/26 08:06:10;;;;;;;3.83;3.53;;;15.60;99.90;;;;;;5066994;28;20211;-74
2022/05/26 08:08:37;;;;;;;3.50;3.30;;;15.70;99.90;;;;;;5066624;28;20615;-77
2022/05/26 08:11:07;;;;;;;3.27;2.93;;;15.80;99.90;;;;;;5047751;28;20332;-75
2022/05/26 08:13:34;;;;;;;3.73;3.20;;;15.70;99.90;;;;;;5048106;28;20197;-76
2022/05/26 08:16:00;;;;;;;3.37;3.13;;;15.80;99.90;;;;;;5047181;28;20595;-76
2022/05/26 08:18:29;;;;;;;2.70;2.50;;;15.90;99.90;;;;;;5062702;28;20208;-75
2022/05/26 08:20:55;;;;;;;2.77;2.40;;;16.00;99.90;;;;;;5065130;28;20208;-77
2022/05/26 08:23:25;;;;;;;2.30;2.10;;;16.20;99.90;;;;;;5065300;28;20207;-77
2022/05/26 08:25:52;;;;;;;2.03;1.93;;;16.40;99.90;;;;;;5063323;28;20729;-77
2022/05/26 08:28:19;;;;;;;1.80;1.70;;;16.40;99.90;;;;;;5050862;28;20221;-76
2022/05/26 08:30:45;;;;;;;1.80;1.70;;;16.40;99.90;;;;;;5047278;28;20224;-76
2022/05/26 08:33:12;;;;;;;3.60;1.33;;;16.50;99.90;;;;;;5048869;28;20203;-75
2022/05/26 08:35:40;;;;;;;1.27;1.23;;;16.70;99.90;;;;;;5048520;28;20289;-74
2022/05/26 08:38:07;;;;;;;1.23;1.13;;;16.90;99.90;;;;;;5047871;28;20250;-74
2022/05/26 08:40:37;;;;;;;1.10;1.10;;;17.10;99.90;;;;;;5048136;28;20720;-75
2022/05/26 08:43:16;;;;;;;0.83;0.83;;;17.20;99.90;;;;;;5055691;28;20200;-74
2022/05/26 08:45:47;;;;;;;0.90;0.90;;;17.30;99.90;;;;;;5048448;28;20192;-75
2022/05/26 08:48:30;;;;;;;1.93;1.00;;;17.30;99.90;;;;;;5059085;28;20196;-75
2022/05/26 08:50:58;;;;;;;0.90;0.90;;;17.20;99.90;;;;;;5067602;28;20239;-75
2022/05/26 08:53:31;;;;;;;1.20;1.00;;;17.40;99.90;;;;;;5058493;28;20258;-76
2022/05/26 08:56:00;;;;;;;3.10;1.40;;;17.50;99.90;;;;;;5064856;28;20638;-74
2022/05/26 08:58:31;;;;;;;0.90;0.90;;;17.60;99.90;;;;;;5067668;28;20246;-75
2022/05/26 09:01:04;;;;;;;1.57;1.03;;;17.50;99.90;;;;;;5067728;28;20237;-74
2022/05/26 09:03:33;;;;;;;0.70;0.63;;;17.60;99.90;;;;;;5052330;28;20216;-74
2022/05/26 09:06:07;;;;;;;0.67;0.63;;;17.70;99.90;;;;;;5047872;28;20216;-74
2022/05/26 09:14:19;;;;;;;2.17;1.00;;;17.80;99.90;;;;;;5055029;28;20745;-75
2022/05/26 09:16:47;;;;;;;2.67;1.13;;;18.10;99.90;;;;;;5047783;28;20196;-75
2022/05/26 09:19:17;;;;;;;1.60;1.30;;;18.20;99.90;;;;;;5048512;28;20215;-75
2022/05/26 09:21:46;;;;;;;1.57;1.13;;;18.20;99.90;;;;;;5054574;28;20258;-74
2022/05/26 09:24:19;;;;;;;1.67;0.93;;;18.00;99.90;;;;;;5047273;28;20208;-75
2022/05/26 09:26:47;;;;;;;1.63;0.80;;;18.00;99.90;;;;;;5067620;28;20218;-75
2022/05/26 09:29:15;;;;;;;1.83;1.00;;;17.90;99.90;;;;;;5067090;28;20207;-74
2022/05/26 09:31:47;;;;;;;2.00;0.83;;;17.80;99.90;;;;;;5067080;28;20231;-75
2022/05/26 09:34:19;;;;;;;0.90;0.90;;;17.80;99.90;;;;;;5067679;28;20203;-75
2022/05/26 09:36:49;;;;;;;2.37;1.10;;;17.90;99.90;;;;;;5067611;28;20661;-75
2022/05/26 09:39:20;;;;;;;1.57;1.00;;;18.20;99.90;;;;;;5066237;28;20208;-75
2022/05/26 09:41:50;;;;;;;1.23;1.13;;;18.50;99.90;;;;;;5057285;28;20240;-76
2022/05/26 09:44:32;;;;;;;2.20;1.20;;;18.70;99.90;;;;;;5066839;28;20198;-76
2022/05/26 09:47:02;;;;;;;1.13;0.90;;;18.80;99.90;;;;;;5066582;28;20196;-76
2022/05/26 09:49:35;;;;;;;1.67;1.07;;;18.60;99.90;;;;;;5046921;28;20212;-75
2022/05/26 09:52:17;;;;;;;1.00;0.90;;;18.60;99.90;;;;;;5047010;28;20274;-78
2022/05/26 09:54:45;;;;;;;2.57;1.20;;;18.90;99.90;;;;;;5046780;28;20204;-77
2022/05/26 09:57:18;;;;;;;1.57;1.30;;;18.80;99.90;;;;;;5047245;28;20262;-76
2022/05/26 09:59:45;;;;;;;2.30;0.80;;;18.70;99.90;;;;;;5061874;28;20233;-77
2022/05/26 10:02:18;;;;;;;4.80;1.33;;;18.60;99.90;;;;;;5059224;28;20208;-77
2022/05/26 10:04:58;;;;;;;1.30;1.20;;;18.50;99.90;;;;;;5046671;28;20196;-77
2022/05/26 10:07:38;;;;;;;1.53;1.37;;;18.50;99.90;;;;;;5046781;28;20253;-77
2022/05/26 10:10:14;;;;;;;1.40;1.13;;;18.50;99.90;;;;;;5046219;28;20204;-76
2022/05/26 10:12:52;;;;;;;1.40;1.20;;;18.40;99.90;;;;;;5046932;28;20614;-77
2022/05/26 10:15:30;;;;;;;1.30;1.20;;;18.50;99.90;;;;;;5046629;28;20279;-77
2022/05/26 10:18:09;;;;;;;1.20;1.10;;;18.50;99.90;;;;;;5052688;28;20672;-77
2022/05/26 10:20:45;;;;;;;2.13;1.30;;;18.50;99.90;;;;;;5051770;28;20226;-76
2022/05/26 10:23:39;;;;;;;1.63;1.50;;;18.50;99.90;;;;;;5066399;28;20227;-76
2022/05/26 10:26:10;;;;;;;1.40;1.30;;;18.50;99.90;;;;;;5065497;28;20196;-75
2022/05/26 10:29:03;;;;;;;1.70;1.60;;;18.40;99.90;;;;;;5066363;28;20199;-75
2022/05/26 10:31:45;;;;;;;2.87;1.30;;;18.30;99.90;;;;;;5066144;28;20485;-76
2022/05/26 10:34:38;;;;;;;1.40;1.30;;;18.20;99.90;;;;;;5066778;28;20196;-76
2022/05/26 10:37:14;;;;;;;1.33;1.23;;;18.20;99.90;;;;;;5064183;28;20226;-76
2022/05/26 10:40:08;;;;;;;2.43;1.47;;;18.40;99.90;;;;;;5045994;28;20195;-76
2022/05/26 10:42:36;;;;;;;2.33;2.13;;;18.50;99.90;;;;;;5061500;28;20243;-75
2022/05/26 10:45:11;;;;;;;2.80;1.80;;;18.60;99.90;;;;;;5065218;28;20222;-75
2022/05/26 10:47:44;;;;;;;2.63;1.53;;;18.70;99.90;;;;;;5057168;28;20298;-75
2022/05/26 10:50:19;;;;;;;2.87;1.50;;;18.70;99.90;;;;;;5045819;28;20812;-76
2022/05/26 10:52:50;;;;;;;2.47;1.60;;;18.60;99.90;;;;;;5045810;28;20227;-75
2022/05/26 10:55:21;;;;;;;1.60;1.43;;;18.50;99.90;;;;;;5054705;28;20207;-76
2022/05/26 10:57:53;;;;;;;3.13;1.50;;;18.70;99.90;;;;;;5063553;28;20253;-75
2022/05/26 11:00:24;;;;;;;2.50;1.50;;;18.90;99.90;;;;;;5046253;28;20215;-75
2022/05/26 11:02:59;;;;;;;1.50;1.40;;;18.90;99.90;;;;;;5046242;28;20246;-76
2022/05/26 11:05:32;;;;;;;3.93;1.30;;;18.90;99.90;;;;;;5048593;28;20184;-82
2022/05/26 11:08:22;;;;;;;2.37;1.50;;;18.90;99.90;;;;;;5047179;28;20192;-75
2022/05/26 11:10:54;;;;;;;2.60;1.40;;;18.90;99.90;;;;;;5047555;28;20323;-75
2022/05/26 11:13:27;;;;;;;1.93;1.73;;;18.90;99.90;;;;;;5061491;28;20286;-75
2022/05/26 11:18:51;;;;;;;1.93;1.70;;;18.70;99.90;;;;;;5065495;28;20211;-74
2022/05/26 11:21:20;;;;;;;4.03;1.80;;;18.80;99.90;;;;;;5067614;28;20199;-74
2022/05/26 11:23:47;;;;;;;2.67;1.70;;;18.90;99.90;;;;;;5067252;28;20292;-75
2022/05/26 11:26:24;;;;;;;2.40;1.63;;;18.90;99.90;;;;;;5067453;28;20215;-76
2022/05/26 11:28:56;;;;;;;2.10;1.23;;;19.00;99.90;;;;;;5067407;28;20257;-78
2022/05/26 11:37:02;;;;;;;2.13;1.27;;;19.00;99.90;;;;;;5064980;28;20194;-75
2022/05/26 11:39:35;;;;;;;1.90;1.37;;;18.80;99.90;;;;;;5065014;28;20199;-75
2022/05/26 11:42:07;;;;;;;7.87;1.60;;;18.70;99.90;;;;;;5065136;28;20243;-75
2022/05/26 11:44:39;;;;;;;2.87;1.43;;;18.70;99.90;;;;;;5065898;28;20192;-76
2022/05/26 11:47:35;;;;;;;2.20;1.57;;;18.70;99.90;;;;;;5063598;28;20984;-75
2022/05/26 11:50:21;;;;;;;2.67;2.30;;;19.00;99.90;;;;;;5064759;28;20688;-75
2022/05/26 11:53:10;;;;;;;5.20;2.40;;;19.40;99.60;;;;;;5065019;28;20258;-75
2022/05/26 11:55:49;;;;;;;3.43;1.30;;;19.80;99.90;;;;;;5055715;28;20215;-75
2022/05/26 11:58:32;;;;;;;1.33;1.27;;;20.20;99.50;;;;;;5065288;28;20206;-75
2022/05/26 12:01:38;;;;;;;4.37;1.33;;;20.30;99.10;;;;;;5054272;28;20213;-75
2022/05/26 12:04:26;;;;;;;3.27;1.60;;;20.30;99.10;;;;;;5034717;28;20260;-75
2022/05/26 12:06:59;;;;;;;4.83;1.70;;;20.10;98.90;;;;;;5068810;28;20745;-75
2022/05/26 12:09:35;;;;;;;2.93;1.50;;;19.80;99.20;;;;;;5056008;28;20302;-75
2022/05/26 12:12:03;;;;;;;4.43;1.70;;;19.70;99.50;;;;;;5054483;28;20218;-75
2022/05/26 12:14:41;;;;;;;3.00;1.30;;;19.80;99.70;;;;;;5060381;28;20200;-75
2022/05/26 12:17:30;;;;;;;1.13;1.03;;;20.30;99.90;;;;;;5068927;28;20253;-75
2022/05/26 12:19:59;;;;;;;2.50;1.70;;;20.50;99.30;;;;;;5048472;28;20204;-75
2022/05/26 12:22:29;;;;;;;1.80;1.40;;;20.20;99.30;;;;;;5048766;28;20208;-75
2022/05/26 12:25:08;;;;;;;2.83;1.63;;;20.10;99.60;;;;;;5048370;28;20234;-75
2022/05/26 12:28:13;;;;;;;1.90;1.47;;;19.90;99.60;;;;;;5048861;28;20707;-75
2022/05/26 12:31:12;;;;;;;2.37;1.57;;;19.70;99.90;;;;;;5058394;28;20574;-75
2022/05/26 12:34:13;;;;;;;1.63;1.50;;;19.90;99.90;;;;;;5068400;28;20294;-76
2022/05/26 12:36:53;;;;;;;7.10;1.97;;;20.30;99.90;;;;;;5068641;28;20641;-75
2022/05/26 12:39:49;;;;;;;2.17;1.53;;;20.40;99.40;;;;;;5067137;28;20245;-75
2022/05/26 12:42:24;;;;;;;2.37;1.60;;;20.20;99.30;;;;;;5045921;28;20244;-75
2022/05/26 12:45:25;;;;;;;3.00;1.80;;;20.50;99.30;;;;;;5049133;28;20257;-76
2022/05/26 12:48:28;;;;;;;3.33;1.30;;;21.10;99.30;;;;;;5048417;28;20273;-76
2022/05/26 12:51:10;;;;;;;4.10;2.47;;;21.40;97.50;;;;;;5031908;28;20646;-75
2022/05/26 12:53:39;;;;;;;2.90;2.70;;;21.50;96.80;;;;;;5047664;28;20202;-75
2022/05/26 12:56:12;;;;;;;4.27;1.90;;;21.70;96.00;;;;;;5048077;28;20549;-75
2022/05/26 12:58:44;;;;;;;4.83;1.50;;;21.30;95.10;;;;;;5048206;28;20196;-75
2022/05/26 13:01:14;;;;;;;7.57;1.80;;;21.00;95.40;;;;;;5048487;28;20582;-75
2022/05/26 13:03:44;;;;;;;3.23;1.67;;;20.70;95.60;;;;;;5048112;28;20528;-75
2022/05/26 13:06:14;;;;;;;3.17;1.70;;;20.50;95.70;;;;;;5064603;28;20200;-75
2022/05/26 13:08:47;;;;;;;4.87;1.50;;;20.40;96.10;;;;;;5067438;28;20203;-75
2022/05/26 13:11:16;;;;;;;3.23;1.90;;;20.50;96.20;;;;;;5067139;28;20220;-75
2022/05/26 13:13:49;;;;;;;3.90;1.43;;;20.70;95.80;;;;;;5067238;28;20203;-75
2022/05/26 13:16:24;;;;;;;3.20;1.50;;;20.60;95.70;;;;;;5049870;28;20199;-75
2022/05/26 13:18:51;;;;;;;3.40;1.20;;;20.60;95.60;;;;;;5050041;28;20211;-76
2022/05/26 13:21:22;;;;;;;2.57;1.30;;;20.50;94.80;;;;;;5058481;28;20215;-75
2022/05/26 13:23:50;;;;;;;6.70;1.37;;;20.20;94.90;;;;;;5055965;28;20712;-74
2022/05/26 13:26:18;;;;;;;2.07;1.53;;;20.20;95.30;;;;;;5047822;28;20200;-75
2022/05/26 13:28:49;;;;;;;8.20;1.70;;;20.00;95.40;;;;;;5060546;28;20257;-75
2022/05/26 13:34:05;;;;;;;3.07;1.67;;;20.00;95.20;;;;;;5067084;28;20198;-74
2022/05/26 13:36:36;;;;;;;1.90;1.30;;;19.90;95.50;;;;;;5067334;28;20210;-75
2022/05/26 13:39:08;;;;;;;3.53;1.50;;;20.00;95.60;;;;;;5066667;28;20725;-75
2022/05/26 13:41:36;;;;;;;9.77;1.80;;;20.20;95.40;;;;;;5067131;28;20235;-75
2022/05/26 13:44:06;;;;;;;3.93;1.60;;;20.60;95.60;;;;;;5067046;28;20665;-75
2022/05/26 13:46:35;;;;;;;3.30;1.40;;;21.00;93.90;;;;;;5053826;28;20208;-75
2022/05/26 13:49:14;;;;;;;3.67;1.37;;;20.80;93.20;;;;;;5066339;28;20265;-75
2022/05/26 13:51:46;;;;;;;2.97;1.23;;;20.70;93.90;;;;;;5063250;28;20242;-76
2022/05/26 13:54:29;;;;;;;1.70;1.17;;;20.60;94.20;;;;;;5051070;28;20200;-75